createdAt,value
2022-11-04T00:01:40.421Z,12.18
2022-11-04T00:04:08.349Z,12.29
2022-11-04T00:06:38.498Z,12.27
2022-11-04T00:09:08.644Z,12.26
2022-11-04T00:11:55.647Z,12.28
2022-11-04T00:14:23.532Z,12.20
2022-11-04T00:17:08.960Z,12.16
2022-11-04T00:19:50.698Z,12.15
2022-11-04T00:22:37.485Z,12.17
2022-11-04T00:25:23.843Z,12.14
2022-11-04T00:28:09.533Z,12.10
2022-11-04T00:30:37.684Z,12.08
2022-11-04T00:33:22.748Z,12.09
2022-11-04T00:35:50.780Z,12.16
2022-11-04T00:38:20.118Z,12.13
2022-11-04T00:40:48.006Z,12.05
2022-11-04T00:43:15.842Z,12.05
2022-11-04T00:45:43.853Z,12.04
2022-11-04T00:48:12.391Z,12.00
2022-11-04T00:50:40.470Z,11.98
2022-11-04T00:53:08.592Z,11.92
2022-11-04T00:55:38.036Z,11.78
2022-11-04T00:58:05.925Z,11.81
2022-11-04T01:00:33.759Z,11.75
2022-11-04T01:03:02.411Z,11.71
2022-11-04T01:05:30.298Z,11.62
2022-11-04T01:07:58.324Z,11.61
2022-11-04T01:10:26.158Z,11.59
2022-11-04T01:12:55.390Z,11.57
2022-11-04T01:15:23.227Z,11.54
2022-11-04T01:17:51.364Z,11.50
2022-11-04T01:20:20.191Z,11.42
2022-11-04T01:22:48.016Z,11.30
2022-11-04T01:25:16.074Z,11.31
2022-11-04T01:27:43.910Z,11.26
2022-11-04T01:30:14.146Z,11.19
2022-11-04T01:32:42.025Z,11.12
2022-11-04T01:35:10.236Z,10.90
2022-11-04T01:37:38.074Z,11.03
2022-11-04T01:40:06.871Z,11.01
2022-11-04T01:42:34.678Z,10.96
2022-11-04T01:45:02.581Z,10.94
2022-11-04T01:47:38.236Z,10.89
2022-11-04T01:50:09.703Z,10.89
2022-11-04T01:52:44.727Z,10.87
2022-11-04T01:55:17.266Z,10.71
2022-11-04T01:57:48.765Z,10.67
2022-11-04T02:00:17.458Z,10.68
2022-11-04T02:02:55.824Z,10.66
2022-11-04T02:05:24.305Z,10.29
2022-11-04T02:07:57.909Z,10.62
2022-11-04T02:10:29.068Z,10.60
2022-11-04T02:12:58.337Z,10.54
2022-11-04T02:15:36.564Z,10.50
2022-11-04T02:18:29.777Z,10.47
2022-11-04T02:21:45.219Z,10.40
2022-11-04T02:24:51.845Z,10.33
2022-11-04T02:27:32.185Z,10.42
2022-11-04T02:30:14.319Z,10.33
2022-11-04T02:32:57.507Z,10.30
2022-11-04T02:35:31.135Z,9.86
2022-11-04T02:38:11.275Z,10.10
2022-11-04T02:40:44.382Z,9.97
2022-11-04T02:43:22.782Z,10.10
2022-11-04T02:45:56.754Z,10.18
2022-11-04T02:48:30.046Z,10.11
2022-11-04T02:51:06.259Z,10.03
2022-11-04T02:53:42.355Z,10.00
2022-11-04T02:56:13.414Z,10.02
2022-11-04T02:58:45.683Z,10.01
2022-11-04T03:01:18.765Z,10.02
2022-11-04T03:03:50.353Z,10.13
2022-11-04T03:06:23.184Z,10.05
2022-11-04T03:08:53.608Z,9.96
2022-11-04T03:11:24.526Z,9.92
2022-11-04T03:13:58.796Z,9.48
2022-11-04T03:16:34.929Z,9.81
2022-11-04T03:19:08.648Z,9.73
2022-11-04T03:21:40.202Z,9.30
2022-11-04T03:24:08.446Z,9.66
2022-11-04T03:26:42.678Z,9.67
2022-11-04T03:29:23.210Z,9.68
2022-11-04T03:32:04.543Z,9.66
2022-11-04T03:34:32.551Z,9.60
2022-11-04T03:37:00.995Z,9.64
2022-11-04T03:39:29.026Z,8.91
2022-11-04T03:41:58.971Z,9.70
2022-11-04T03:44:27.499Z,9.69
2022-11-04T03:46:56.778Z,9.63
2022-11-04T03:49:25.935Z,9.53
2022-11-04T03:51:53.905Z,9.48
2022-11-04T03:54:22.158Z,9.49
2022-11-04T03:57:19.191Z,9.46
2022-11-04T04:00:08.936Z,9.48
2022-11-04T04:02:49.069Z,9.50
2022-11-04T04:05:23.123Z,9.47
2022-11-04T04:07:55.905Z,9.39
2022-11-04T04:10:40.288Z,9.40
2022-11-04T04:13:25.134Z,9.41
2022-11-04T04:15:58.570Z,9.38
2022-11-04T04:18:34.164Z,9.22
2022-11-04T04:21:07.099Z,9.35
2022-11-04T04:23:54.162Z,8.87
2022-11-04T04:26:41.523Z,9.34
2022-11-04T04:29:11.214Z,9.33
2022-11-04T04:31:57.627Z,9.37
2022-11-04T04:34:28.849Z,9.34
2022-11-04T04:37:02.313Z,9.36
2022-11-04T04:39:53.862Z,9.28
2022-11-04T04:42:39.737Z,9.25
2022-11-04T04:45:09.204Z,9.19
2022-11-04T04:47:44.256Z,9.20
2022-11-04T04:50:16.234Z,9.17
2022-11-04T04:52:46.483Z,9.16
2022-11-04T04:55:15.474Z,9.15
2022-11-04T04:57:43.910Z,9.17
2022-11-04T05:00:15.038Z,9.15
2022-11-04T05:02:43.226Z,9.10
2022-11-04T05:05:11.856Z,9.08
2022-11-04T05:07:41.379Z,9.11
2022-11-04T05:10:10.838Z,8.89
2022-11-04T05:12:57.345Z,9.13
2022-11-04T05:15:25.234Z,9.17
2022-11-04T05:17:55.937Z,9.22
2022-11-04T05:20:24.517Z,9.36
2022-11-04T05:22:55.078Z,9.49
2022-11-04T05:25:22.961Z,9.63
2022-11-04T05:27:50.790Z,9.37
2022-11-04T05:30:18.961Z,9.82
2022-11-04T05:32:46.842Z,9.89
2022-11-04T05:35:14.779Z,10.09
2022-11-04T05:37:42.618Z,10.26
2022-11-04T05:40:13.218Z,10.56
2022-11-04T05:42:41.337Z,10.78
2022-11-04T05:45:10.175Z,11.03
2022-11-04T05:47:38.117Z,11.29
2022-11-04T05:50:06.870Z,11.50
2022-11-04T05:52:34.913Z,11.72
2022-11-04T05:55:02.825Z,11.85
2022-11-04T05:57:32.042Z,12.05
2022-11-04T05:59:59.911Z,12.16
2022-11-04T06:02:27.825Z,12.03
2022-11-04T06:04:55.740Z,11.97
2022-11-04T06:07:23.695Z,12.12
2022-11-04T06:09:51.580Z,12.40
2022-11-04T06:12:19.634Z,12.16
2022-11-04T06:14:49.361Z,12.74
2022-11-04T06:17:18.942Z,12.55
2022-11-04T06:19:47.341Z,12.18
2022-11-04T06:22:16.871Z,12.25
2022-11-04T06:24:45.250Z,12.14
2022-11-04T06:27:14.167Z,12.40
2022-11-04T06:29:42.179Z,12.41
2022-11-04T06:32:13.338Z,12.76
2022-11-04T06:34:41.547Z,13.08
2022-11-04T06:37:10.008Z,13.08
2022-11-04T06:39:37.954Z,13.39
2022-11-04T06:42:06.483Z,13.58
2022-11-04T06:44:35.106Z,14.21
2022-11-04T06:47:03.043Z,14.34
2022-11-04T06:49:32.266Z,14.45
2022-11-04T06:52:01.122Z,14.50
2022-11-04T06:54:29.045Z,14.46
2022-11-04T06:56:56.897Z,14.74
2022-11-04T06:59:25.075Z,14.62
2022-11-04T07:01:53.032Z,14.58
2022-11-04T07:04:21.015Z,14.96
2022-11-04T07:06:50.275Z,15.00
2022-11-04T07:09:18.549Z,14.63
2022-11-04T07:11:46.720Z,14.42
2022-11-04T07:14:15.448Z,14.61
2022-11-04T07:16:43.311Z,15.28
2022-11-04T07:19:11.137Z,15.33
2022-11-04T07:21:39.043Z,15.73
2022-11-04T07:24:08.611Z,15.99
2022-11-04T07:26:36.499Z,16.10
2022-11-04T07:29:06.691Z,16.18
2022-11-04T07:31:34.595Z,16.35
2022-11-04T07:34:03.115Z,15.74
2022-11-04T07:36:31.393Z,15.61
2022-11-04T07:38:59.293Z,16.14
2022-11-04T07:41:29.476Z,16.45
2022-11-04T07:43:58.874Z,16.39
2022-11-04T07:46:26.759Z,16.22
2022-11-04T07:48:57.954Z,16.55
2022-11-04T07:51:27.024Z,16.89
2022-11-04T07:53:56.039Z,16.47
2022-11-04T07:56:24.170Z,16.73
2022-11-04T07:58:53.614Z,16.99
2022-11-04T08:01:24.562Z,17.54
2022-11-04T08:03:53.069Z,17.86
2022-11-04T08:06:22.436Z,17.57
2022-11-04T08:08:54.189Z,16.99
2022-11-04T08:11:25.317Z,17.53
2022-11-04T08:13:55.594Z,17.03
2022-11-04T08:16:27.729Z,17.55
2022-11-04T08:19:01.912Z,17.47
2022-11-04T08:21:31.126Z,17.54
2022-11-04T08:23:58.990Z,17.49
2022-11-04T08:26:26.974Z,18.05
2022-11-04T08:28:56.568Z,18.13
2022-11-04T08:31:26.642Z,17.98
2022-11-04T08:33:55.234Z,17.86
2022-11-04T08:36:25.592Z,17.73
2022-11-04T08:38:54.274Z,18.02
2022-11-04T08:41:24.178Z,18.25
2022-11-04T08:43:52.082Z,18.41
2022-11-04T08:46:21.519Z,18.35
2022-11-04T08:48:50.607Z,18.82
2022-11-04T08:51:21.102Z,18.55
2022-11-04T08:53:49.101Z,18.44
2022-11-04T08:56:19.646Z,18.49
2022-11-04T08:58:48.715Z,18.52
2022-11-04T09:01:17.432Z,19.06
2022-11-04T09:03:46.916Z,19.00
2022-11-04T09:06:17.391Z,18.75
2022-11-04T09:08:45.268Z,18.81
2022-11-04T09:11:15.196Z,19.18
2022-11-04T09:13:43.623Z,19.51
2022-11-04T09:16:13.951Z,19.19
2022-11-04T09:18:41.968Z,19.21
2022-11-04T09:21:12.008Z,19.20
2022-11-04T09:23:39.949Z,19.57
2022-11-04T09:26:11.519Z,19.04
2022-11-04T09:28:40.464Z,19.35
2022-11-04T09:31:09.695Z,19.52
2022-11-04T09:33:37.632Z,19.39
2022-11-04T09:36:06.005Z,19.68
2022-11-04T09:38:35.270Z,19.64
2022-11-04T09:41:09.455Z,19.48
2022-11-04T09:43:52.628Z,19.01
2022-11-04T09:46:21.773Z,19.13
2022-11-04T09:48:54.835Z,19.71
2022-11-04T09:51:52.457Z,19.76
2022-11-04T09:54:20.102Z,19.62
2022-11-04T09:56:51.350Z,19.31
2022-11-04T09:59:25.650Z,19.52
2022-11-04T10:02:22.578Z,19.79
2022-11-04T10:05:02.642Z,20.02
2022-11-04T10:07:45.582Z,19.78
2022-11-04T10:10:22.204Z,19.46
2022-11-04T10:13:02.890Z,19.51
2022-11-04T10:15:55.448Z,19.75
2022-11-04T10:18:41.739Z,19.93
2022-11-04T10:21:22.673Z,20.14
2022-11-04T10:24:05.393Z,20.06
2022-11-04T10:26:40.741Z,20.20
2022-11-04T10:29:17.832Z,21.07
2022-11-04T10:31:48.861Z,21.05
2022-11-04T10:34:33.947Z,20.43
2022-11-04T10:37:02.146Z,20.45
2022-11-04T10:39:33.461Z,20.79
2022-11-04T10:42:03.991Z,21.09
2022-11-04T10:44:35.073Z,21.20
2022-11-04T10:47:12.898Z,20.86
2022-11-04T10:52:51.171Z,20.72
2022-11-04T10:55:32.019Z,21.27
2022-11-04T10:58:01.629Z,21.30
2022-11-04T11:00:37.485Z,21.08
2022-11-04T11:03:24.401Z,20.94
2022-11-04T11:05:53.322Z,21.24
2022-11-04T11:08:39.192Z,21.45
2022-11-04T11:11:07.874Z,21.57
2022-11-04T11:13:39.438Z,21.81
2022-11-04T11:16:11.786Z,21.33
2022-11-04T11:18:41.880Z,21.06
2022-11-04T11:21:13.334Z,21.18
2022-11-04T11:23:47.391Z,22.08
2022-11-04T11:26:17.871Z,21.84
2022-11-04T11:28:59.032Z,21.45
2022-11-04T11:31:36.328Z,21.40
2022-11-04T11:34:07.941Z,21.52
2022-11-04T11:36:39.525Z,21.07
2022-11-04T11:39:17.458Z,20.97
2022-11-04T11:41:59.204Z,21.03
2022-11-04T11:44:33.010Z,21.09
2022-11-04T11:47:04.650Z,20.97
2022-11-04T11:49:34.559Z,20.51
2022-11-04T11:52:32.895Z,20.32
2022-11-04T11:55:07.527Z,20.22
2022-11-04T12:00:47.117Z,20.30
2022-11-04T12:03:23.409Z,20.29
2022-11-04T12:06:17.915Z,20.18
2022-11-04T12:09:16.757Z,20.25
2022-11-04T12:12:01.783Z,20.17
2022-11-04T12:14:46.124Z,20.25
2022-11-04T12:17:31.693Z,20.28
2022-11-04T12:20:22.802Z,20.09
2022-11-04T12:22:59.582Z,19.91
2022-11-04T12:25:34.127Z,19.69
2022-11-04T12:28:11.986Z,19.78
2022-11-04T12:30:52.314Z,19.83
2022-11-04T12:33:33.562Z,19.75
2022-11-04T12:36:17.646Z,19.92
2022-11-04T12:39:05.829Z,19.87
2022-11-04T12:42:14.760Z,19.83
2022-11-04T12:44:37.550Z,19.68
2022-11-04T12:47:19.662Z,19.49
2022-11-04T12:50:15.727Z,19.65
2022-11-04T12:52:59.576Z,19.65
2022-11-04T12:55:44.089Z,19.62
2022-11-04T12:58:24.694Z,19.89
2022-11-04T13:01:00.764Z,20.10
2022-11-04T13:03:34.318Z,19.82
2022-11-04T13:06:07.696Z,19.15
2022-11-04T13:08:41.634Z,19.42
2022-11-04T13:11:23.665Z,19.34
2022-11-04T13:14:01.885Z,19.26
2022-11-04T13:16:32.660Z,18.95
2022-11-04T13:19:01.247Z,19.06
2022-11-04T13:21:34.898Z,19.04
2022-11-04T13:24:05.870Z,19.03
2022-11-04T13:26:34.774Z,19.02
2022-11-04T13:29:09.129Z,19.00
2022-11-04T13:31:48.230Z,19.16
2022-11-04T13:34:25.899Z,19.10
2022-11-04T13:37:05.391Z,19.12
2022-11-04T13:39:38.561Z,19.13
2022-11-04T13:42:27.335Z,18.65
2022-11-04T13:44:58.401Z,19.06
2022-11-04T13:47:30.212Z,18.93
2022-11-04T13:49:58.075Z,18.84
2022-11-04T13:52:30.419Z,18.73
2022-11-04T13:55:00.715Z,18.66
2022-11-04T13:57:30.809Z,18.60
2022-11-04T14:00:23.703Z,18.43
2022-11-04T14:02:52.967Z,18.43
2022-11-04T14:05:57.172Z,18.42
2022-11-04T14:08:26.574Z,18.46
2022-11-04T14:11:10.281Z,18.52
2022-11-04T14:14:18.090Z,18.39
2022-11-04T14:16:46.847Z,18.38
2022-11-04T14:19:57.126Z,18.24
2022-11-04T14:22:49.694Z,18.21
2022-11-04T14:25:27.559Z,18.14
2022-11-04T14:27:58.245Z,18.04
2022-11-04T14:30:47.547Z,17.96
2022-11-04T14:33:29.531Z,17.83
2022-11-04T14:36:14.653Z,17.81
2022-11-04T14:38:43.566Z,17.72
2022-11-04T14:41:23.831Z,17.43
2022-11-04T14:43:54.456Z,17.57
2022-11-04T14:46:26.559Z,17.50
2022-11-04T14:49:01.046Z,17.44
2022-11-04T14:51:31.454Z,17.32
2022-11-04T14:54:06.319Z,17.30
2022-11-04T14:56:35.590Z,17.22
2022-11-04T14:59:06.388Z,16.92
2022-11-04T15:01:37.663Z,17.02
2022-11-04T15:04:13.321Z,16.88
2022-11-04T15:06:54.763Z,16.75
2022-11-04T15:09:25.490Z,16.66
2022-11-04T15:12:20.184Z,16.64
2022-11-04T15:14:48.142Z,16.49
2022-11-04T15:17:21.528Z,16.31
2022-11-04T15:19:52.168Z,16.22
2022-11-04T15:22:20.718Z,16.18
2022-11-04T15:24:50.648Z,16.04
2022-11-04T15:27:25.942Z,16.05
2022-11-04T15:29:58.287Z,15.95
2022-11-04T15:32:27.532Z,15.83
2022-11-04T15:34:56.630Z,15.58
2022-11-04T15:37:26.200Z,15.62
2022-11-04T15:39:57.731Z,15.54
2022-11-04T15:42:37.178Z,15.42
2022-11-04T15:45:28.318Z,15.32
2022-11-04T15:48:31.474Z,15.24
2022-11-04T15:51:11.250Z,15.16
2022-11-04T15:53:49.588Z,14.93
2022-11-04T15:56:18.799Z,15.03
2022-11-04T15:58:48.254Z,15.01
2022-11-04T16:01:18.200Z,15.04
2022-11-04T16:03:52.146Z,14.98
2022-11-04T16:06:34.706Z,14.93
2022-11-04T16:09:05.442Z,14.00
2022-11-04T16:11:33.495Z,14.76
2022-11-04T16:14:23.815Z,14.76
2022-11-04T16:16:54.416Z,14.73
2022-11-04T16:19:24.059Z,14.55
2022-11-04T16:22:00.875Z,14.70
2022-11-04T16:24:31.450Z,14.64
2022-11-04T16:26:59.726Z,14.55
2022-11-04T16:29:31.798Z,14.55
2022-11-04T16:32:17.006Z,14.47
2022-11-04T16:34:45.825Z,13.32
2022-11-04T16:37:14.248Z,14.26
2022-11-04T16:39:44.603Z,14.35
2022-11-04T16:42:13.927Z,14.29
2022-11-04T16:44:48.067Z,14.26
2022-11-04T16:47:16.206Z,14.24
2022-11-04T16:49:44.062Z,14.22
2022-11-04T16:52:15.794Z,14.21
2022-11-04T16:54:43.734Z,14.19
2022-11-04T16:57:14.589Z,14.23
2022-11-04T16:59:44.383Z,14.19
2022-11-04T17:02:21.235Z,14.13
2022-11-04T17:04:49.458Z,14.13
2022-11-04T17:07:17.313Z,14.10
2022-11-04T17:09:45.155Z,14.06
2022-11-04T17:12:13.397Z,14.01
2022-11-04T17:14:41.343Z,13.99
2022-11-04T17:17:12.181Z,14.01
2022-11-04T17:19:40.276Z,13.95
2022-11-04T17:22:09.920Z,13.97
2022-11-04T17:24:38.049Z,13.93
2022-11-04T17:27:06.522Z,13.89
2022-11-04T17:29:36.462Z,13.86
2022-11-04T17:32:04.519Z,13.80
2022-11-04T17:34:33.770Z,13.74
2022-11-04T17:37:02.475Z,13.68
2022-11-04T17:39:30.350Z,13.52
2022-11-04T17:42:15.483Z,13.65
2022-11-04T17:44:43.349Z,13.65
2022-11-04T17:47:11.272Z,13.63
2022-11-04T17:49:41.499Z,13.61
2022-11-04T17:52:09.532Z,13.53
2022-11-04T17:54:37.405Z,13.57
2022-11-04T17:57:05.322Z,13.46
2022-11-04T17:59:36.769Z,13.50
2022-11-04T18:02:05.119Z,13.48
2022-11-04T18:04:33.114Z,13.45
2022-11-04T18:07:03.942Z,13.44
2022-11-04T18:09:32.793Z,13.37
2022-11-04T18:12:18.153Z,13.39
2022-11-04T18:14:46.297Z,13.38
2022-11-04T18:17:14.140Z,13.31
2022-11-04T18:19:42.473Z,13.28
2022-11-04T18:22:11.674Z,13.25
2022-11-04T18:24:40.816Z,13.22
2022-11-04T18:27:08.754Z,13.20
2022-11-04T18:29:36.660Z,13.21
2022-11-04T18:32:04.753Z,13.14
2022-11-04T18:34:33.035Z,13.09
2022-11-04T18:37:00.963Z,13.11
2022-11-04T18:39:30.177Z,13.19
2022-11-04T18:41:58.055Z,13.19
2022-11-04T18:44:26.182Z,13.20
2022-11-04T18:46:54.066Z,13.20
2022-11-04T18:49:22.241Z,13.21
2022-11-04T18:51:50.143Z,12.89
2022-11-04T18:54:17.981Z,13.25
2022-11-04T18:56:47.390Z,13.23
2022-11-04T18:59:16.346Z,13.03
2022-11-04T19:01:45.594Z,13.18
2022-11-04T19:04:14.381Z,13.15
2022-11-04T19:06:44.798Z,13.14
2022-11-04T19:12:23.852Z,13.06
2022-11-04T19:14:51.984Z,13.00
2022-11-04T19:17:19.995Z,12.98
2022-11-04T19:19:48.000Z,12.97
2022-11-04T19:22:15.878Z,12.99
2022-11-04T19:24:43.707Z,12.98
2022-11-04T19:27:13.207Z,12.99
2022-11-04T19:29:41.092Z,12.97
2022-11-04T19:32:13.782Z,12.96
2022-11-04T19:34:42.399Z,12.98
2022-11-04T19:37:10.691Z,12.92
2022-11-04T19:39:39.177Z,13.00
2022-11-04T19:42:25.285Z,13.00
2022-11-04T19:44:54.578Z,12.97
2022-11-04T19:47:22.420Z,12.98
2022-11-04T19:49:50.318Z,12.93
2022-11-04T19:52:18.627Z,12.79
2022-11-04T19:54:46.519Z,12.83
2022-11-04T19:57:14.392Z,12.81
2022-11-04T19:59:42.218Z,12.86
2022-11-04T20:02:15.238Z,12.59
2022-11-04T20:04:43.330Z,12.89
2022-11-04T20:07:11.208Z,12.86
2022-11-04T20:09:39.564Z,12.90
2022-11-04T20:12:25.003Z,12.96
2022-11-04T20:14:55.957Z,12.68
2022-11-04T20:17:25.655Z,13.03
2022-11-04T20:19:53.506Z,12.74
2022-11-04T20:22:21.406Z,12.77
2022-11-04T20:24:49.257Z,13.05
2022-11-04T20:27:17.093Z,13.06
2022-11-04T20:29:45.025Z,13.09
2022-11-04T20:32:12.846Z,13.11
2022-11-04T20:34:42.229Z,13.03
2022-11-04T20:37:11.742Z,12.68
2022-11-04T20:39:39.661Z,13.04
2022-11-04T20:42:07.699Z,13.01
2022-11-04T20:44:35.581Z,12.99
2022-11-04T20:47:03.477Z,12.61
2022-11-04T20:49:31.597Z,12.86
2022-11-04T20:52:00.941Z,12.49
2022-11-04T20:54:28.930Z,12.83
2022-11-04T20:56:56.894Z,12.74
2022-11-04T20:59:24.783Z,12.67
2022-11-04T21:01:52.730Z,12.63
2022-11-04T21:04:22.043Z,12.61
2022-11-04T21:06:51.505Z,12.58
2022-11-04T21:09:22.268Z,12.63
2022-11-04T21:11:51.322Z,12.68
2022-11-04T21:14:20.344Z,12.69
2022-11-04T21:16:48.731Z,12.61
2022-11-04T21:19:17.225Z,12.48
2022-11-04T21:21:47.145Z,12.50
2022-11-04T21:24:17.163Z,12.55
2022-11-04T21:26:46.969Z,12.54
2022-11-04T21:29:17.009Z,12.58
2022-11-04T21:31:45.694Z,12.54
2022-11-04T21:34:13.680Z,12.51
2022-11-04T21:36:41.621Z,12.35
2022-11-04T21:39:10.972Z,12.57
2022-11-04T21:41:39.270Z,12.66
2022-11-04T21:44:10.609Z,12.74
2022-11-04T21:46:38.495Z,12.76
2022-11-04T21:49:06.898Z,12.75
2022-11-04T21:51:35.426Z,12.77
2022-11-04T21:54:06.989Z,12.76
2022-11-04T21:56:35.841Z,12.71
2022-11-04T21:59:04.635Z,12.67
2022-11-04T22:01:34.311Z,12.70
2022-11-04T22:04:03.318Z,12.64
2022-11-04T22:06:35.004Z,12.65
2022-11-04T22:09:04.584Z,12.52
2022-11-04T22:11:33.929Z,12.59
2022-11-04T22:14:04.345Z,12.60
2022-11-04T22:16:35.831Z,12.23
2022-11-04T22:19:05.361Z,12.59
2022-11-04T22:21:33.830Z,12.58
2022-11-04T22:24:02.359Z,12.55
2022-11-04T22:26:32.574Z,12.49
2022-11-04T22:29:01.005Z,12.47
2022-11-04T22:31:30.756Z,12.44
2022-11-04T22:34:00.911Z,12.32
2022-11-04T22:36:29.719Z,12.40
2022-11-04T22:38:57.590Z,12.38
2022-11-04T22:41:27.437Z,12.30
2022-11-04T22:43:56.533Z,12.27
2022-11-04T22:46:26.537Z,12.27
2022-11-04T22:48:54.585Z,12.22
2022-11-04T22:51:24.619Z,12.27
2022-11-04T22:53:56.785Z,12.28
2022-11-04T22:56:27.005Z,12.26
2022-11-04T22:58:55.027Z,12.03
2022-11-04T23:01:25.776Z,12.18
2022-11-04T23:03:54.227Z,12.21
2022-11-04T23:06:23.516Z,12.28
2022-11-04T23:08:59.726Z,12.29
2022-11-04T23:11:47.108Z,12.27
2022-11-04T23:14:33.615Z,12.26
2022-11-04T23:17:19.151Z,12.30
2022-11-04T23:19:47.115Z,12.30
2022-11-04T23:22:33.590Z,12.19
2022-11-04T23:25:09.286Z,12.33
2022-11-04T23:27:57.929Z,12.35
2022-11-04T23:30:27.055Z,12.41
2022-11-04T23:32:56.600Z,12.41
2022-11-04T23:35:45.074Z,12.32
2022-11-04T23:38:14.361Z,12.33
2022-11-04T23:40:42.694Z,12.14
2022-11-04T23:43:09.988Z,12.29
2022-11-04T23:45:55.504Z,12.34
2022-11-04T23:48:40.865Z,12.15
2022-11-04T23:51:29.832Z,12.22
2022-11-04T23:54:16.589Z,12.19
2022-11-04T23:57:01.865Z,12.20
2022-11-04T23:59:47.317Z,12.11
